createdAt,value
2018-10-11T00:00:46.169Z,34.90
2018-10-11T00:03:18.631Z,33.90
2018-10-11T00:05:50.997Z,31.87
2018-10-11T00:08:23.406Z,32.57
2018-10-11T00:10:55.757Z,33.30
2018-10-11T00:13:28.569Z,36.20
2018-10-11T00:16:01.056Z,35.93
2018-10-11T00:18:33.470Z,33.50
2018-10-11T00:21:05.989Z,34.67
2018-10-11T00:23:38.366Z,37.57
2018-10-11T00:26:10.780Z,33.37
2018-10-11T00:28:43.169Z,35.23
2018-10-11T00:31:15.546Z,39.27
2018-10-11T00:33:48.036Z,37.90
2018-10-11T00:36:20.381Z,44.20
2018-10-11T00:38:52.796Z,37.17
2018-10-11T00:41:25.231Z,37.33
2018-10-11T00:43:57.824Z,36.57
2018-10-11T00:46:30.209Z,38.47
2018-10-11T00:49:02.601Z,39.43
2018-10-11T00:51:34.947Z,38.63
2018-10-11T00:54:07.636Z,37.00
2018-10-11T00:56:40.489Z,35.23
2018-10-11T00:59:12.891Z,35.77
2018-10-11T01:01:46.303Z,33.80
2018-10-11T01:04:18.965Z,38.20
2018-10-11T01:06:51.480Z,35.77
2018-10-11T01:09:23.880Z,38.80
2018-10-11T01:11:56.229Z,35.57
2018-10-11T01:14:28.627Z,37.10
2018-10-11T01:17:01.006Z,38.33
2018-10-11T01:19:33.635Z,34.67
2018-10-11T01:22:06.294Z,34.37
2018-10-11T01:24:39.098Z,34.87
2018-10-11T01:27:11.521Z,39.67
2018-10-11T01:29:43.951Z,38.17
2018-10-11T01:32:16.386Z,38.43
2018-10-11T01:34:48.775Z,33.63
2018-10-11T01:37:21.195Z,34.87
2018-10-11T01:39:53.561Z,34.40
2018-10-11T01:42:26.039Z,32.93
2018-10-11T01:44:58.474Z,36.97
2018-10-11T01:47:31.293Z,34.50
2018-10-11T01:50:04.020Z,35.13
2018-10-11T01:52:36.413Z,34.23
2018-10-11T01:55:08.887Z,33.40
2018-10-11T01:57:41.275Z,33.27
2018-10-11T02:00:13.690Z,33.90
2018-10-11T02:02:46.084Z,34.53
2018-10-11T02:05:18.473Z,33.33
2018-10-11T02:07:50.916Z,34.03
2018-10-11T02:10:23.866Z,36.83
2018-10-11T02:12:57.266Z,35.47
2018-10-11T02:15:29.814Z,36.23
2018-10-11T02:18:02.282Z,34.47
2018-10-11T02:20:34.999Z,37.83
2018-10-11T02:23:07.449Z,36.30
2018-10-11T02:25:40.053Z,32.57
2018-10-11T02:28:12.470Z,32.33
2018-10-11T02:30:44.843Z,33.27
2018-10-11T02:33:17.281Z,32.40
2018-10-11T02:35:49.682Z,31.83
2018-10-11T02:38:22.098Z,36.73
2018-10-11T02:40:54.524Z,34.97
2018-10-11T02:43:27.013Z,33.20
2018-10-11T02:45:59.416Z,34.57
2018-10-11T02:48:31.815Z,33.63
2018-10-11T02:51:04.197Z,33.40
2018-10-11T02:53:36.660Z,36.20
2018-10-11T02:56:09.068Z,35.20
2018-10-11T02:58:52.952Z,34.53
2018-10-11T03:01:25.387Z,33.80
2018-10-11T03:04:05.875Z,37.80
2018-10-11T03:06:38.764Z,32.37
2018-10-11T03:09:11.223Z,31.57
2018-10-11T03:11:43.680Z,36.20
2018-10-11T03:14:16.088Z,29.80
2018-10-11T03:16:48.482Z,30.03
2018-10-11T03:19:21.229Z,33.43
2018-10-11T03:21:53.620Z,34.03
2018-10-11T03:24:26.064Z,33.73
2018-10-11T03:26:59.810Z,28.73
2018-10-11T03:29:32.213Z,29.57
2018-10-11T03:32:04.652Z,30.37
2018-10-11T03:34:37.190Z,33.37
2018-10-11T03:37:10.714Z,28.47
2018-10-11T03:39:43.105Z,29.87
2018-10-11T03:42:15.551Z,28.90
2018-10-11T03:44:48.092Z,31.00
2018-10-11T03:47:20.479Z,30.03
2018-10-11T03:49:52.886Z,34.13
2018-10-11T03:52:25.337Z,29.03
2018-10-11T03:54:57.719Z,28.00
2018-10-11T03:57:30.178Z,28.90
2018-10-11T04:00:02.645Z,28.87
2018-10-11T04:02:35.080Z,30.93
2018-10-11T04:05:07.666Z,27.53
2018-10-11T04:07:40.193Z,31.00
2018-10-11T04:10:12.572Z,33.13
2018-10-11T04:12:45.043Z,28.93
2018-10-11T04:15:17.699Z,28.60
2018-10-11T04:17:50.104Z,29.97
2018-10-11T04:20:22.527Z,28.30
2018-10-11T04:22:54.971Z,28.70
2018-10-11T04:25:28.366Z,32.73
2018-10-11T04:28:00.979Z,29.53
2018-10-11T04:30:33.386Z,31.10
2018-10-11T04:33:05.855Z,32.57
2018-10-11T04:35:38.295Z,32.30
2018-10-11T04:38:10.913Z,31.10
2018-10-11T04:40:43.336Z,31.87
2018-10-11T04:43:15.954Z,32.43
2018-10-11T04:45:48.283Z,35.63
2018-10-11T04:48:20.674Z,31.97
2018-10-11T04:50:53.129Z,32.00
2018-10-11T04:53:25.849Z,40.03
2018-10-11T04:55:58.232Z,29.50
2018-10-11T04:58:30.697Z,30.63
2018-10-11T05:01:03.550Z,34.50
2018-10-11T05:03:36.308Z,29.93
2018-10-11T05:06:08.801Z,30.90
2018-10-11T05:08:41.219Z,35.40
2018-10-11T05:11:13.679Z,32.50
2018-10-11T05:13:48.739Z,31.83
2018-10-11T05:16:21.310Z,34.63
2018-10-11T05:18:57.505Z,28.53
2018-10-11T05:21:30.057Z,31.13
2018-10-11T05:24:02.596Z,29.10
2018-10-11T05:26:35.214Z,30.53
2018-10-11T05:29:08.035Z,28.80
2018-10-11T05:31:40.491Z,27.40
2018-10-11T05:34:12.979Z,30.63
2018-10-11T05:36:45.459Z,30.40
2018-10-11T05:39:17.903Z,36.47
2018-10-11T05:41:50.546Z,30.07
2018-10-11T05:44:23.137Z,31.57
2018-10-11T05:46:55.765Z,33.50
2018-10-11T05:49:28.273Z,34.37
2018-10-11T05:52:01.113Z,36.47
2018-10-11T05:54:33.572Z,32.10
2018-10-11T05:57:06.091Z,32.13
2018-10-11T05:59:38.606Z,28.27
2018-10-11T06:02:11.371Z,31.07
2018-10-11T06:04:43.819Z,30.93
2018-10-11T06:07:18.438Z,30.40
2018-10-11T06:09:50.871Z,31.70
2018-10-11T06:12:23.424Z,32.00
2018-10-11T06:14:57.439Z,33.60
2018-10-11T06:17:30.029Z,29.67
2018-10-11T06:20:02.578Z,29.40
2018-10-11T06:22:35.041Z,30.13
2018-10-11T06:25:07.617Z,28.83
2018-10-11T06:27:41.048Z,30.97
2018-10-11T06:30:14.234Z,25.67
2018-10-11T06:32:46.774Z,27.07
2018-10-11T06:35:19.297Z,30.63
2018-10-11T06:37:52.242Z,31.13
2018-10-11T06:40:24.874Z,26.83
2018-10-11T06:42:57.487Z,29.57
2018-10-11T06:45:30.139Z,28.90
2018-10-11T06:48:05.931Z,30.63
2018-10-11T06:50:39.315Z,29.93
2018-10-11T06:53:11.826Z,28.70
2018-10-11T06:55:44.298Z,30.60
2018-10-11T06:58:16.715Z,30.83
2018-10-11T07:00:49.222Z,30.60
2018-10-11T07:03:21.609Z,28.20
2018-10-11T07:05:54.075Z,26.10
2018-10-11T07:08:26.563Z,26.40
2018-10-11T07:10:58.996Z,27.73
2018-10-11T07:13:31.527Z,31.47
2018-10-11T07:16:04.124Z,26.90
2018-10-11T07:18:36.620Z,24.80
2018-10-11T07:21:09.047Z,29.53
2018-10-11T07:23:41.464Z,28.73
2018-10-11T07:26:13.889Z,31.00
2018-10-11T07:28:46.320Z,26.53
2018-10-11T07:31:18.854Z,27.40
2018-10-11T07:33:51.311Z,29.33
2018-10-11T07:36:23.769Z,27.37
2018-10-11T07:38:56.175Z,29.50
2018-10-11T07:41:28.706Z,25.17
2018-10-11T07:44:01.148Z,25.60
2018-10-11T07:46:33.648Z,27.37
2018-10-11T07:49:07.745Z,24.10
2018-10-11T07:51:40.272Z,24.83
2018-10-11T07:54:12.688Z,23.53
2018-10-11T07:56:45.167Z,26.63
2018-10-11T07:59:17.636Z,28.53
2018-10-11T08:01:50.114Z,22.77
2018-10-11T08:04:22.539Z,25.10
2018-10-11T08:06:55.060Z,27.27
2018-10-11T08:09:27.604Z,23.70
2018-10-11T08:12:00.333Z,25.53
2018-10-11T08:14:33.299Z,22.77
2018-10-11T08:17:06.702Z,23.93
2018-10-11T08:19:39.212Z,23.10
2018-10-11T08:22:11.719Z,24.13
2018-10-11T08:24:44.291Z,21.37
2018-10-11T08:27:16.783Z,24.50
2018-10-11T08:29:49.364Z,22.53
2018-10-11T08:32:21.973Z,24.47
2018-10-11T08:34:54.386Z,22.37
2018-10-11T08:37:26.849Z,20.93
2018-10-11T08:39:59.550Z,20.57
2018-10-11T08:42:32.114Z,20.97
2018-10-11T08:45:05.032Z,23.03
2018-10-11T08:47:37.609Z,28.60
2018-10-11T08:50:10.559Z,21.53
2018-10-11T08:52:43.851Z,25.63
2018-10-11T08:55:17.035Z,20.00
2018-10-11T08:57:50.483Z,20.07
2018-10-11T09:00:22.980Z,19.30
2018-10-11T09:02:55.467Z,21.73
2018-10-11T09:05:27.952Z,21.60
2018-10-11T09:08:00.439Z,19.90
2018-10-11T09:10:38.345Z,25.27
2018-10-11T09:13:05.995Z,21.70
2018-10-11T09:15:38.470Z,23.07
2018-10-11T09:18:10.913Z,20.30
2018-10-11T09:20:43.368Z,23.20
2018-10-11T09:23:15.898Z,22.93
2018-10-11T09:25:48.449Z,22.03
2018-10-11T09:28:20.916Z,22.43
2018-10-11T09:30:53.662Z,26.33
2018-10-11T09:33:26.135Z,22.80
2018-10-11T09:35:58.616Z,20.43
2018-10-11T09:38:31.267Z,21.93
2018-10-11T09:41:03.746Z,24.67
2018-10-11T09:43:36.388Z,24.20
2018-10-11T09:46:08.963Z,18.60
2018-10-11T09:48:41.482Z,19.23
2018-10-11T09:51:14.016Z,21.27
2018-10-11T09:53:46.524Z,20.83
2018-10-11T09:56:18.949Z,18.67
2018-10-11T09:58:51.326Z,19.33
2018-10-11T10:01:57.105Z,20.20
2018-10-11T10:04:29.570Z,20.37
2018-10-11T10:07:02.017Z,22.03
2018-10-11T10:09:34.415Z,20.93
2018-10-11T10:12:07.772Z,21.87
2018-10-11T10:14:40.986Z,19.97
2018-10-11T10:17:13.434Z,20.60
2018-10-11T10:19:46.122Z,18.93
2018-10-11T10:22:18.637Z,17.53
2018-10-11T10:24:51.881Z,20.33
2018-10-11T10:27:24.358Z,22.20
2018-10-11T10:29:57.293Z,19.97
2018-10-11T10:32:29.918Z,22.03
2018-10-11T10:35:02.421Z,18.87
2018-10-11T10:37:36.111Z,19.63
2018-10-11T10:40:08.636Z,18.00
2018-10-11T10:42:41.107Z,18.80
2018-10-11T10:45:13.591Z,18.33
2018-10-11T10:47:46.093Z,19.13
2018-10-11T10:50:18.559Z,22.87
2018-10-11T10:52:52.264Z,22.63
2018-10-11T10:55:24.763Z,17.77
2018-10-11T10:57:57.263Z,22.80
2018-10-11T11:00:29.742Z,20.10
2018-10-11T11:03:02.260Z,21.47
2018-10-11T11:05:34.761Z,22.30
2018-10-11T11:08:07.800Z,17.87
2018-10-11T11:10:40.283Z,19.33
2018-10-11T11:13:14.567Z,19.83
2018-10-11T11:15:46.998Z,22.20
2018-10-11T11:18:19.495Z,35.77
2018-10-11T11:20:52.132Z,20.90
2018-10-11T11:23:25.007Z,21.47
2018-10-11T11:25:57.543Z,20.87
2018-10-11T11:28:30.088Z,18.10
2018-10-11T11:31:02.925Z,19.63
2018-10-11T11:33:35.563Z,17.57
2018-10-11T11:36:08.121Z,22.43
2018-10-11T11:38:41.439Z,17.37
2018-10-11T11:41:13.972Z,22.37
2018-10-11T11:43:46.759Z,21.67
2018-10-11T11:46:19.255Z,26.70
2018-10-11T11:48:51.789Z,21.33
2018-10-11T11:51:24.306Z,19.47
2018-10-11T11:53:58.579Z,18.80
2018-10-11T11:56:31.023Z,18.90
2018-10-11T11:59:03.491Z,19.30
2018-10-11T12:01:35.978Z,19.57
2018-10-11T12:04:08.428Z,18.43
2018-10-11T12:06:40.920Z,17.37
2018-10-11T12:09:14.168Z,16.23
2018-10-11T12:11:46.730Z,19.47
2018-10-11T12:14:19.264Z,18.70
2018-10-11T12:16:51.756Z,18.80
2018-10-11T12:19:24.263Z,18.13
2018-10-11T12:21:56.884Z,20.57
2018-10-11T12:24:29.353Z,19.67
2018-10-11T12:27:01.810Z,37.37
2018-10-11T12:29:34.258Z,24.40
2018-10-11T12:32:06.877Z,17.20
2018-10-11T12:34:39.586Z,20.43
2018-10-11T12:37:12.130Z,20.90
2018-10-11T12:39:44.608Z,19.37
2018-10-11T12:42:17.094Z,18.53
2018-10-11T12:44:49.722Z,20.20
2018-10-11T12:47:28.050Z,16.83
2018-10-11T12:50:00.536Z,17.47
2018-10-11T12:52:33.095Z,17.60
2018-10-11T12:55:06.148Z,22.27
2018-10-11T12:57:38.962Z,18.93
2018-10-11T13:00:12.548Z,15.83
2018-10-11T13:02:45.128Z,23.07
2018-10-11T13:05:17.623Z,15.07
2018-10-11T13:07:50.089Z,22.13
2018-10-11T13:10:22.809Z,18.00
2018-10-11T13:12:57.421Z,19.97
2018-10-11T13:15:29.343Z,21.87
2018-10-11T13:18:01.880Z,19.83
2018-10-11T13:20:34.418Z,17.37
2018-10-11T13:23:10.794Z,18.60
2018-10-11T13:25:40.120Z,19.47
2018-10-11T13:28:12.681Z,18.47
2018-10-11T13:30:45.187Z,16.23
2018-10-11T13:33:17.631Z,17.67
2018-10-11T13:35:50.228Z,20.43
2018-10-11T13:38:22.807Z,15.03
2018-10-11T13:40:57.868Z,16.93
2018-10-11T13:43:27.828Z,19.87
2018-10-11T13:46:02.540Z,17.30
2018-10-11T13:48:32.808Z,15.20
2018-10-11T13:51:05.584Z,15.63
2018-10-11T13:53:38.164Z,16.17
2018-10-11T13:56:11.369Z,16.13
2018-10-11T13:58:43.967Z,18.03
2018-10-11T14:01:16.810Z,20.67
2018-10-11T14:03:49.307Z,18.60
2018-10-11T14:06:21.775Z,13.10
2018-10-11T14:08:54.487Z,18.80
2018-10-11T14:11:27.056Z,15.90
2018-10-11T14:14:00.076Z,14.20
2018-10-11T14:16:32.555Z,13.80
2018-10-11T14:19:05.138Z,13.63
2018-10-11T14:21:37.598Z,14.70
2018-10-11T14:24:10.272Z,17.73
2018-10-11T14:26:42.670Z,18.37
2018-10-11T14:29:15.157Z,12.77
2018-10-11T14:31:47.727Z,15.40
2018-10-11T14:34:20.261Z,17.37
2018-10-11T14:36:53.120Z,12.83
2018-10-11T14:39:25.480Z,15.93
2018-10-11T14:41:58.124Z,18.20
2018-10-11T14:44:30.611Z,13.93
2018-10-11T14:47:03.149Z,14.17
2018-10-11T14:49:36.052Z,14.63
2018-10-11T14:52:08.551Z,17.73
2018-10-11T14:54:41.927Z,15.33
2018-10-11T14:57:14.848Z,13.93
2018-10-11T14:59:47.279Z,22.63
2018-10-11T15:02:19.787Z,26.87
2018-10-11T15:04:52.494Z,19.57
2018-10-11T15:07:25.012Z,18.47
2018-10-11T15:09:58.066Z,21.73
2018-10-11T15:12:30.681Z,21.10
2018-10-11T15:15:03.206Z,22.90
2018-10-11T15:17:35.869Z,16.70
2018-10-11T15:20:08.608Z,15.63
2018-10-11T15:22:41.116Z,18.40
2018-10-11T15:25:13.558Z,16.03
2018-10-11T15:27:46.323Z,15.03
2018-10-11T15:30:19.187Z,23.83
2018-10-11T15:32:51.626Z,19.57
2018-10-11T15:35:24.064Z,14.90
2018-10-11T15:37:56.606Z,15.13
2018-10-11T15:40:29.090Z,14.90
2018-10-11T15:43:01.582Z,15.20
2018-10-11T15:45:34.101Z,13.47
2018-10-11T15:48:06.593Z,17.60
2018-10-11T15:50:39.119Z,18.27
2018-10-11T15:53:11.559Z,19.47
2018-10-11T15:55:44.185Z,19.40
2018-10-11T15:58:16.848Z,15.93
2018-10-11T16:00:49.714Z,14.60
2018-10-11T16:03:22.310Z,15.60
2018-10-11T16:05:54.983Z,15.17
2018-10-11T16:08:27.854Z,18.53
2018-10-11T16:11:00.417Z,16.37
2018-10-11T16:13:33.196Z,16.13
2018-10-11T16:16:05.665Z,19.17
2018-10-11T16:18:38.402Z,17.00
2018-10-11T16:21:10.839Z,16.10
2018-10-11T16:23:43.464Z,17.47
2018-10-11T16:26:15.886Z,17.00
2018-10-11T16:28:48.511Z,15.23
2018-10-11T16:31:21.043Z,17.73
2018-10-11T16:33:53.538Z,16.53
2018-10-11T16:36:26.148Z,20.70
2018-10-11T16:38:58.733Z,21.53
2018-10-11T16:41:31.270Z,22.17
2018-10-11T16:44:03.765Z,31.67
2018-10-11T16:46:36.555Z,25.67
2018-10-11T16:49:09.231Z,30.23
2018-10-11T16:51:41.714Z,24.77
2018-10-11T16:54:14.153Z,30.70
2018-10-11T16:56:46.661Z,25.43
2018-10-11T16:59:19.452Z,22.17
2018-10-11T17:01:51.937Z,24.77
2018-10-11T17:04:24.530Z,23.23
2018-10-11T17:06:57.032Z,27.17
2018-10-11T17:09:29.687Z,27.67
2018-10-11T17:12:02.286Z,25.53
2018-10-11T17:14:35.057Z,24.90
2018-10-11T17:17:07.561Z,24.73
2018-10-11T17:19:40.120Z,26.73
2018-10-11T17:22:12.813Z,27.30
2018-10-11T17:24:45.209Z,29.20
2018-10-11T17:27:17.859Z,25.77
2018-10-11T17:29:50.400Z,27.43
2018-10-11T17:32:23.064Z,22.40
2018-10-11T17:34:55.534Z,21.70
2018-10-11T17:37:27.957Z,27.33
2018-10-11T17:40:00.487Z,22.30
2018-10-11T17:42:32.991Z,20.50
2018-10-11T17:45:06.263Z,22.50
2018-10-11T17:47:38.708Z,18.53
2018-10-11T17:50:11.219Z,21.03
2018-10-11T17:52:43.679Z,18.13
2018-10-11T17:55:16.308Z,17.47
2018-10-11T17:57:48.842Z,18.60
2018-10-11T18:00:21.485Z,18.63
2018-10-11T18:02:53.939Z,16.60
2018-10-11T18:05:26.463Z,18.07
2018-10-11T18:07:59.223Z,20.40
2018-10-11T18:10:31.778Z,18.07
2018-10-11T18:13:04.257Z,20.60
2018-10-11T18:15:36.756Z,23.37
2018-10-11T18:18:09.274Z,16.70
2018-10-11T18:20:41.904Z,18.60
2018-10-11T18:23:15.488Z,18.53
2018-10-11T18:25:47.956Z,23.43
2018-10-11T18:28:20.436Z,27.50
2018-10-11T18:30:52.910Z,24.37
2018-10-11T18:33:25.420Z,17.93
2018-10-11T18:35:58.017Z,24.53
2018-10-11T18:38:30.453Z,23.27
2018-10-11T18:41:03.037Z,20.80
2018-10-11T18:43:35.557Z,20.50
2018-10-11T18:46:08.154Z,18.07
2018-10-11T18:48:40.613Z,19.93
2018-10-11T18:51:13.074Z,19.73
2018-10-11T18:53:45.573Z,21.00
2018-10-11T18:56:18.092Z,20.63
2018-10-11T18:58:50.555Z,18.83
2018-10-11T19:01:23.118Z,18.17
2018-10-11T19:03:55.568Z,19.53
2018-10-11T19:06:28.116Z,19.63
2018-10-11T19:09:00.594Z,20.23
2018-10-11T19:11:33.175Z,22.37
2018-10-11T19:14:05.634Z,17.70
2018-10-11T19:16:38.155Z,18.03
2018-10-11T19:19:10.680Z,22.57
2018-10-11T19:21:43.392Z,20.73
2018-10-11T19:24:15.945Z,16.37
2018-10-11T19:26:48.790Z,21.37
2018-10-11T19:29:21.270Z,18.57
2018-10-11T19:31:53.752Z,17.23
2018-10-11T19:34:26.459Z,19.67
2018-10-11T19:36:58.957Z,19.53
2018-10-11T19:39:31.507Z,18.73
2018-10-11T19:42:05.225Z,19.40
2018-10-11T19:44:37.711Z,21.93
2018-10-11T19:47:10.177Z,20.77
2018-10-11T19:49:42.727Z,23.27
2018-10-11T19:52:15.155Z,20.47
2018-10-11T19:54:48.300Z,20.70
2018-10-11T19:57:20.781Z,18.80
2018-10-11T19:59:53.533Z,17.23
2018-10-11T20:02:26.426Z,25.33
2018-10-11T20:04:58.952Z,16.40
2018-10-11T20:07:31.736Z,19.03
2018-10-11T20:10:04.335Z,18.67
2018-10-11T20:12:37.179Z,19.57
2018-10-11T20:15:09.699Z,20.00
2018-10-11T20:17:42.280Z,16.67
2018-10-11T20:20:14.919Z,19.93
2018-10-11T20:22:47.744Z,21.67
2018-10-11T20:25:20.664Z,22.30
2018-10-11T20:27:53.083Z,21.30
2018-10-11T20:30:25.643Z,21.73
2018-10-11T20:32:58.623Z,16.07
2018-10-11T20:35:31.257Z,20.97
2018-10-11T20:38:03.753Z,16.10
2018-10-11T20:40:36.225Z,20.33
2018-10-11T20:43:08.920Z,16.63
2018-10-11T20:45:41.458Z,16.03
2018-10-11T20:48:13.886Z,20.77
2018-10-11T20:50:46.689Z,19.97
2018-10-11T20:53:19.209Z,19.93
2018-10-11T20:55:51.951Z,18.13
2018-10-11T20:58:24.379Z,18.50
2018-10-11T21:00:56.833Z,18.63
2018-10-11T21:03:29.351Z,20.33
2018-10-11T21:06:01.832Z,20.77
2018-10-11T21:08:34.344Z,15.20
2018-10-11T21:11:06.810Z,20.97
2018-10-11T21:13:39.295Z,19.03
2018-10-11T21:16:11.710Z,20.33
2018-10-11T21:18:44.159Z,18.40
2018-10-11T21:21:16.629Z,16.37
2018-10-11T21:23:49.171Z,16.60
2018-10-11T21:26:21.623Z,21.93
2018-10-11T21:28:54.051Z,19.43
2018-10-11T21:31:26.522Z,15.60
2018-10-11T21:33:58.992Z,15.83
2018-10-11T21:36:31.452Z,16.20
2018-10-11T21:39:07.038Z,18.10
2018-10-11T21:41:40.047Z,16.93
2018-10-11T21:44:14.152Z,19.07
2018-10-11T21:46:46.610Z,18.40
2018-10-11T21:49:19.071Z,17.93
2018-10-11T21:51:51.524Z,19.50
2018-10-11T21:54:24.113Z,17.60
2018-10-11T21:56:56.741Z,17.13
2018-10-11T21:59:29.290Z,18.63
2018-10-11T22:02:01.737Z,15.77
2018-10-11T22:04:34.786Z,15.90
2018-10-11T22:07:07.537Z,20.10
2018-10-11T22:09:40.747Z,17.43
2018-10-11T22:12:13.168Z,17.30
2018-10-11T22:14:45.785Z,19.90
2018-10-11T22:17:18.203Z,15.40
2018-10-11T22:19:50.631Z,18.00
2018-10-11T22:22:23.127Z,14.53
2018-10-11T22:24:55.678Z,15.90
2018-10-11T22:27:28.506Z,15.30
2018-10-11T22:30:00.978Z,13.50
2018-10-11T22:32:33.412Z,17.97
2018-10-11T22:35:05.889Z,16.50
2018-10-11T22:37:38.308Z,13.77
2018-10-11T22:40:12.948Z,19.50
2018-10-11T22:43:00.795Z,16.20
2018-10-11T22:45:33.363Z,21.27
2018-10-11T22:48:05.907Z,16.53
2018-10-11T22:50:38.565Z,15.83
2018-10-11T22:53:11.025Z,17.30
2018-10-11T22:55:43.516Z,14.90
2018-10-11T22:58:15.999Z,16.20
2018-10-11T23:00:48.463Z,22.33
2018-10-11T23:03:20.908Z,15.37
2018-10-11T23:05:53.475Z,15.13
2018-10-11T23:08:25.952Z,16.07
2018-10-11T23:10:58.423Z,19.43
2018-10-11T23:13:30.826Z,19.50
2018-10-11T23:16:03.326Z,15.70
2018-10-11T23:18:35.797Z,14.67
2018-10-11T23:21:08.275Z,17.43
2018-10-11T23:23:41.749Z,18.83
2018-10-11T23:26:14.300Z,14.60
2018-10-11T23:28:46.740Z,16.20
2018-10-11T23:31:19.660Z,15.80
2018-10-11T23:33:52.283Z,16.13
2018-10-11T23:36:24.711Z,15.20
2018-10-11T23:38:57.161Z,15.10
2018-10-11T23:41:29.586Z,18.73
2018-10-11T23:44:02.036Z,16.77
2018-10-11T23:46:34.740Z,16.13
2018-10-11T23:49:07.155Z,15.57
2018-10-11T23:51:39.805Z,18.60
2018-10-11T23:54:12.238Z,22.40
2018-10-11T23:56:44.991Z,18.70
2018-10-11T23:59:17.397Z,17.67
